Time;durP1;ratioP1;P1;durP2;ratioP2;P2;SDS_P1;SDS_P2;PMS_P1;PMS_P2;Temp;Humidity;BMP_temperature;BMP_pressure;BME280_temperature;BME280_humidity;BME280_pressure;Samples;Min_cycle;Max_cycle;Signal;HPM_P1;HPM_P2
2023/12/11 00:00:06;;;;;;;71.80;43.50;;;;;;;5.65;80.40;101196.81;4944922;28;20074;-79
2023/12/11 00:02:33;;;;;;;70.38;43.38;;;;;;;5.63;80.34;101198.72;4967825;28;20058;-79
2023/12/11 00:05:00;;;;;;;69.20;41.75;;;;;;;5.55;80.42;101185.13;4965526;28;20156;-81
2023/12/11 00:07:27;;;;;;;68.18;43.20;;;;;;;5.39;80.41;101165.91;4964324;28;20100;-82
2023/12/11 00:09:54;;;;;;;71.90;42.03;;;;;;;5.56;80.85;101206.13;4963012;28;20413;-83
2023/12/11 00:12:22;;;;;;;72.43;42.67;;;;;;;5.18;80.76;101118.84;4963877;28;20046;-82
2023/12/11 00:14:49;;;;;;;74.13;43.88;;;;;;;5.54;81.22;101186.94;4963944;28;20043;-82
2023/12/11 00:17:19;;;;;;;72.72;43.47;;;;;;;5.47;81.20;101179.47;4969953;28;20096;-83
2023/12/11 00:19:46;;;;;;;71.38;41.92;;;;;;;5.53;81.34;101181.75;4964188;28;20086;-82
2023/12/11 00:22:14;;;;;;;83.90;43.80;;;;;;;5.71;80.75;101187.72;4956941;28;20050;-81
2023/12/11 00:24:41;;;;;;;81.18;43.45;;;;;;;5.55;81.44;101164.06;4959126;28;20101;-81
2023/12/11 00:27:07;;;;;;;72.75;43.50;;;;;;;5.76;80.94;101181.25;4949076;28;20419;-82
2023/12/11 00:29:36;;;;;;;81.55;45.30;;;;;;;5.73;81.45;101170.06;4950387;28;20054;-80
2023/12/11 00:32:03;;;;;;;88.93;46.33;;;;;;;5.09;81.53;101041.25;4966491;28;20050;-80
2023/12/11 00:34:32;;;;;;;86.30;46.30;;;;;;;5.64;81.64;101118.75;4963717;28;20148;-83
2023/12/11 00:37:03;;;;;;;85.22;47.00;;;;;;;5.57;81.71;101097.19;4972318;28;20043;-82
2023/12/11 00:39:32;;;;;;;83.20;46.58;;;;;;;5.71;81.65;101120.06;4961856;28;20109;-82
2023/12/11 00:42:00;;;;;;;86.85;46.83;;;;;;;5.66;81.46;101121.31;4958834;28;20137;-81
2023/12/11 00:44:27;;;;;;;90.35;47.80;;;;;;;5.25;81.50;101064.88;4956076;28;20050;-82
2023/12/11 00:46:54;;;;;;;87.13;43.97;;;;;;;5.47;82.04;101105.75;4957394;28;20518;-81
2023/12/11 00:49:24;;;;;;;86.97;44.58;;;;;;;5.60;81.80;101148.84;4933504;28;20358;-83
2023/12/11 00:51:53;;;;;;;86.97;43.90;;;;;;;5.68;81.88;101153.66;4941947;28;20061;-83
2023/12/11 00:54:24;;;;;;;87.28;44.70;;;;;;;5.63;81.72;101164.47;4949007;28;20404;-82
2023/12/11 00:56:51;;;;;;;90.47;48.17;;;;;;;5.55;82.33;101159.63;4942089;28;20885;-82
2023/12/11 00:59:18;;;;;;;89.60;46.50;;;;;;;5.38;83.05;101129.97;4962345;28;20827;-83
2023/12/11 01:01:44;;;;;;;95.55;46.80;;;;;;;5.53;82.41;101165.94;4976031;28;20057;-82
2023/12/11 01:04:12;;;;;;;86.72;46.15;;;;;;;5.51;82.77;101173.06;4974905;28;20084;-81
2023/12/11 01:06:58;;;;;;;97.50;48.80;;;;;;;5.61;82.15;101182.16;4974956;28;20404;-82
2023/12/11 01:09:25;;;;;;;92.85;48.20;;;;;;;5.58;83.35;101187.59;4968679;28;20056;-82
2023/12/11 01:11:55;;;;;;;142.43;51.63;;;;;;;5.42;84.37;101186.81;4975100;28;20061;-82
2023/12/11 01:14:23;;;;;;;106.82;51.28;;;;;;;5.30;84.63;101173.41;4966812;28;20128;-82
2023/12/11 01:16:50;;;;;;;107.55;46.20;;;;;;;5.50;84.98;101224.06;4976716;28;20053;-82
2023/12/11 01:19:17;;;;;;;97.55;47.60;;;;;;;5.38;85.48;101209.81;4970335;28;20046;-81
2023/12/11 01:21:45;;;;;;;100.05;48.17;;;;;;;5.17;85.04;101172.44;4933317;28;20066;-83
2023/12/11 01:24:12;;;;;;;109.40;51.17;;;;;;;5.48;85.23;101218.03;4952708;28;20054;-81
2023/12/11 01:26:39;;;;;;;121.45;49.53;;;;;;;5.47;85.62;101216.34;4970207;28;20144;-83
2023/12/11 01:29:06;;;;;;;105.35;47.00;;;;;;;5.52;85.25;101240.63;4975901;28;20204;-82
2023/12/11 01:31:34;;;;;;;115.60;51.15;;;;;;;5.45;85.55;101223.47;4960904;28;20061;-82
2023/12/11 01:34:01;;;;;;;126.15;53.30;;;;;;;5.56;85.45;101242.16;4926470;28;20579;-81
2023/12/11 01:36:28;;;;;;;124.90;51.03;;;;;;;5.44;85.43;101216.53;4940727;28;20082;-82
2023/12/11 01:38:55;;;;;;;139.63;50.85;;;;;;;5.59;84.70;101247.25;4950006;28;20542;-81
2023/12/11 01:41:22;;;;;;;114.70;50.45;;;;;;;5.40;85.76;101236.91;4950082;28;20412;-82
2023/12/11 01:43:53;;;;;;;134.73;50.70;;;;;;;5.51;85.38;101255.59;4950951;28;20047;-81
2023/12/11 01:46:22;;;;;;;123.72;52.47;;;;;;;5.34;85.14;101246.03;4943605;28;20141;-81
2023/12/11 01:48:52;;;;;;;152.45;54.45;;;;;;;5.52;85.28;101277.50;4952069;28;20386;-82
2023/12/11 01:51:20;;;;;;;134.80;54.47;;;;;;;5.46;84.73;101251.50;4950354;28;20073;-82
2023/12/11 01:53:49;;;;;;;136.23;55.03;;;;;;;4.84;84.86;101154.97;4965244;28;20456;-82
2023/12/11 01:56:21;;;;;;;126.93;55.90;;;;;;;5.29;85.42;101229.63;4966242;28;20480;-81
2023/12/11 01:58:50;;;;;;;117.55;52.03;;;;;;;5.31;85.91;101227.75;4956463;28;20053;-82
2023/12/11 02:01:21;;;;;;;118.25;52.58;;;;;;;4.95;86.54;101187.72;4965421;28;20049;-81
2023/12/11 02:03:52;;;;;;;125.43;53.97;;;;;;;5.32;87.27;101240.00;4938035;28;20059;-81
2023/12/11 02:06:19;;;;;;;120.60;52.88;;;;;;;5.32;87.55;101220.72;4944714;28;20050;-80
2023/12/11 02:08:46;;;;;;;121.80;52.13;;;;;;;5.32;87.44;101224.19;4952791;28;20458;-82
2023/12/11 02:11:13;;;;;;;136.30;58.15;;;;;;;5.33;87.63;101186.38;4938492;28;20089;-81
2023/12/11 02:13:40;;;;;;;116.28;52.85;;;;;;;5.46;87.86;101167.22;4941189;28;20479;-81
2023/12/11 02:16:12;;;;;;;112.03;50.78;;;;;;;5.43;87.21;101130.56;4939145;28;20405;-82
2023/12/11 02:18:43;;;;;;;124.55;56.17;;;;;;;5.53;86.89;101115.91;4934802;28;20115;-82
2023/12/11 02:21:11;;;;;;;128.23;55.55;;;;;;;5.61;86.45;101112.81;4942426;28;20068;-81
2023/12/11 02:23:49;;;;;;;126.22;53.92;;;;;;;5.19;86.09;101059.97;4954796;28;20086;-81
2023/12/11 02:26:24;;;;;;;118.90;53.35;;;;;;;5.39;86.25;101081.63;4958333;28;20605;-82
2023/12/11 02:28:53;;;;;;;126.85;55.58;;;;;;;5.53;85.97;101081.66;4968362;28;20232;-81
2023/12/11 02:31:20;;;;;;;110.13;53.10;;;;;;;5.65;86.28;101088.81;4957687;28;20307;-81
2023/12/11 02:33:47;;;;;;;114.00;53.25;;;;;;;5.63;86.19;101116.19;4945001;28;20581;-81
2023/12/11 02:36:14;;;;;;;116.95;53.25;;;;;;;5.65;86.11;101146.78;4944008;28;20105;-81
2023/12/11 02:38:41;;;;;;;118.03;53.38;;;;;;;5.63;86.43;101132.88;4940588;28;20876;-81
2023/12/11 02:41:07;;;;;;;123.20;56.10;;;;;;;5.73;85.98;101081.31;4939980;28;20158;-82
2023/12/11 02:43:35;;;;;;;125.15;56.05;;;;;;;5.77;85.92;101097.78;4943194;28;20090;-81
2023/12/11 02:46:02;;;;;;;120.28;53.10;;;;;;;5.63;85.33;101117.06;4951716;28;20046;-82
2023/12/11 02:48:30;;;;;;;116.07;55.28;;;;;;;5.72;85.88;101111.22;4944172;28;20061;-81
2023/12/11 02:51:01;;;;;;;122.82;54.20;;;;;;;5.72;85.83;101074.34;4930071;28;20057;-81
2023/12/11 02:53:35;;;;;;;122.18;55.15;;;;;;;5.72;85.70;101055.91;4947551;28;20057;-81
2023/12/11 02:56:02;;;;;;;121.18;56.90;;;;;;;5.12;85.68;100991.09;4969190;28;20380;-81
2023/12/11 02:58:31;;;;;;;132.20;60.15;;;;;;;5.63;85.43;101090.72;4955968;28;20068;-81
2023/12/11 03:00:59;;;;;;;138.45;60.95;;;;;;;5.77;85.50;101124.97;4957693;28;20368;-80
2023/12/11 03:03:27;;;;;;;135.43;55.97;;;;;;;5.45;85.51;101087.41;4952621;28;20085;-81
2023/12/11 03:05:54;;;;;;;133.30;56.60;;;;;;;5.47;85.59;101093.41;4970492;28;20057;-80
2023/12/11 03:08:21;;;;;;;134.68;58.40;;;;;;;5.50;85.20;101095.88;4943528;28;20523;-81
2023/12/11 03:10:47;;;;;;;144.57;57.42;;;;;;;5.55;84.03;101111.41;4957670;28;20442;-81
2023/12/11 03:13:16;;;;;;;133.25;54.13;;;;;;;5.50;84.72;101131.91;4968545;28;20046;-81
2023/12/11 03:15:46;;;;;;;152.43;56.45;;;;;;;5.56;83.45;101110.47;4955400;28;20053;-80
2023/12/11 03:18:13;;;;;;;144.75;56.20;;;;;;;5.62;83.94;101160.13;4967494;28;20054;-81
2023/12/11 03:20:43;;;;;;;132.95;54.80;;;;;;;5.53;84.77;101163.31;4952466;28;20276;-81
2023/12/11 03:23:09;;;;;;;137.43;55.45;;;;;;;5.37;85.49;101120.41;4932731;28;20068;-81
2023/12/11 03:25:38;;;;;;;128.38;57.05;;;;;;;4.83;85.85;101045.41;4949840;28;20205;-82
2023/12/11 03:28:12;;;;;;;134.65;58.33;;;;;;;5.10;87.23;101107.91;4969876;28;20056;-81
2023/12/11 03:30:42;;;;;;;131.43;56.03;;;;;;;5.24;86.89;101154.47;4961160;28;20508;-82
2023/12/11 03:33:09;;;;;;;131.88;54.15;;;;;;;5.23;87.02;101129.09;4938478;28;20291;-82
2023/12/11 03:35:36;;;;;;;132.52;55.88;;;;;;;5.38;87.09;101153.69;4937985;28;20678;-82
2023/12/11 03:38:09;;;;;;;134.60;54.58;;;;;;;5.36;87.01;101156.41;4939598;28;20440;-81
2023/12/11 03:40:36;;;;;;;141.88;59.55;;;;;;;5.35;86.31;101138.91;4930856;28;20368;-80
2023/12/11 03:43:03;;;;;;;143.35;57.42;;;;;;;5.13;86.22;101099.84;4930842;28;20837;-82
2023/12/11 03:45:30;;;;;;;146.80;57.10;;;;;;;5.30;86.42;101128.66;4937378;28;20079;-82
2023/12/11 03:47:57;;;;;;;143.05;59.13;;;;;;;5.16;87.67;101144.38;4945050;28;20057;-81
2023/12/11 03:50:24;;;;;;;129.75;52.53;;;;;;;5.22;87.93;101153.72;4938038;28;20078;-82
2023/12/11 03:52:51;;;;;;;128.55;54.25;;;;;;;5.24;88.09;101142.19;4939614;28;20197;-81
2023/12/11 03:55:18;;;;;;;130.30;55.70;;;;;;;5.13;88.01;101115.63;4957501;28;20116;-80
2023/12/11 03:57:45;;;;;;;120.72;54.00;;;;;;;5.24;88.58;101131.66;4937374;28;20050;-81
2023/12/11 04:00:12;;;;;;;126.57;55.70;;;;;;;5.30;88.62;101115.47;4930032;28;20291;-81
2023/12/11 04:02:39;;;;;;;124.78;56.22;;;;;;;5.34;88.66;101111.75;4945981;28;20593;-82
2023/12/11 04:05:07;;;;;;;131.82;56.30;;;;;;;5.22;88.56;101070.34;4933411;28;20112;-81
2023/12/11 04:07:34;;;;;;;121.47;54.35;;;;;;;5.46;88.34;101077.69;4937694;28;20046;-81
2023/12/11 04:10:07;;;;;;;118.75;54.58;;;;;;;5.48;87.61;101076.66;4939286;28;20057;-80
2023/12/11 04:12:36;;;;;;;117.28;51.53;;;;;;;5.42;87.02;101065.69;4946942;28;20046;-79
2023/12/11 04:15:03;;;;;;;119.55;50.03;;;;;;;5.51;87.18;101076.50;4935282;28;20057;-81
2023/12/11 04:17:30;;;;;;;103.30;48.42;;;;;;;5.53;86.88;101068.50;4942501;28;20269;-81
2023/12/11 04:19:57;;;;;;;114.20;49.85;;;;;;;5.14;87.25;100989.19;4937110;28;20404;-80
2023/12/11 04:22:24;;;;;;;116.68;51.63;;;;;;;5.35;86.66;101034.44;4923059;28;20051;-81
2023/12/11 04:24:51;;;;;;;115.75;52.63;;;;;;;5.33;86.94;101028.41;4954689;28;20798;-81
2023/12/11 04:27:18;;;;;;;127.88;53.55;;;;;;;5.49;86.43;101048.56;4935567;28;20046;-81
2023/12/11 04:29:45;;;;;;;124.28;52.47;;;;;;;5.12;86.75;101003.38;4944794;28;20062;-81
2023/12/11 04:32:12;;;;;;;114.10;51.70;;;;;;;5.32;87.11;101039.91;4952881;28;20043;-81
2023/12/11 04:34:39;;;;;;;103.32;50.38;;;;;;;5.38;87.12;101064.16;4967233;28;20045;-81
2023/12/11 04:37:06;;;;;;;111.45;50.65;;;;;;;5.41;86.89;101085.03;4944631;28;20392;-81
2023/12/11 04:39:32;;;;;;;109.97;51.42;;;;;;;5.43;87.23;101085.78;4944573;28;20828;-81
2023/12/11 04:41:59;;;;;;;110.80;48.13;;;;;;;5.49;86.84;101096.81;4943812;28;20097;-81
2023/12/11 04:44:26;;;;;;;108.93;47.08;;;;;;;5.19;86.55;101017.84;4952326;28;20101;-81
2023/12/11 04:46:53;;;;;;;111.07;50.25;;;;;;;5.40;86.53;101057.88;4937545;28;20047;-81
2023/12/11 04:49:20;;;;;;;99.75;48.88;;;;;;;4.07;86.01;100843.00;4963076;28;20434;-80
2023/12/11 04:51:47;;;;;;;103.55;49.63;;;;;;;5.47;86.66;101066.25;4946941;28;20472;-80
2023/12/11 04:54:14;;;;;;;107.57;49.65;;;;;;;4.41;86.47;100899.69;4977763;28;20484;-80
2023/12/11 04:56:41;;;;;;;116.10;51.78;;;;;;;5.20;86.90;101042.41;4953799;28;20042;-80
2023/12/11 04:59:08;;;;;;;108.60;49.72;;;;;;;4.48;87.06;100916.81;4955114;28;20398;-81
2023/12/11 05:01:34;;;;;;;103.25;48.15;;;;;;;4.61;86.38;100926.59;4965162;28;20136;-81
2023/12/11 05:04:01;;;;;;;108.05;50.20;;;;;;;5.26;86.67;101019.19;4946049;28;20516;-83
2023/12/11 05:06:28;;;;;;;106.72;50.40;;;;;;;5.30;86.56;101039.13;4961691;28;20326;-82
2023/12/11 05:08:55;;;;;;;102.90;50.58;;;;;;;5.38;86.11;101054.47;4960356;28;20054;-82
2023/12/11 05:11:22;;;;;;;108.55;50.67;;;;;;;5.37;86.79;101058.06;4953006;28;20323;-82
2023/12/11 05:13:49;;;;;;;97.90;47.88;;;;;;;4.84;86.24;100969.97;4960847;28;20602;-82
2023/12/11 05:16:16;;;;;;;104.03;46.83;;;;;;;5.34;85.98;101048.56;4957590;28;20046;-82
2023/12/11 05:18:43;;;;;;;94.13;45.67;;;;;;;5.22;85.36;101049.28;4942830;28;20419;-80
2023/12/11 05:21:10;;;;;;;100.50;49.55;;;;;;;5.25;86.03;101099.13;4944064;28;20054;-81
2023/12/11 05:23:38;;;;;;;94.47;46.65;;;;;;;5.30;85.84;101104.13;4958899;28;20089;-82
2023/12/11 05:26:05;;;;;;;98.82;47.33;;;;;;;5.32;85.48;101099.59;4941763;28;20105;-83
2023/12/11 05:28:32;;;;;;;103.47;48.50;;;;;;;5.20;85.14;101088.00;4952877;28;20053;-83
2023/12/11 05:31:05;;;;;;;103.45;47.78;;;;;;;5.29;85.85;101119.06;4959277;28;20047;-82
2023/12/11 05:33:34;;;;;;;104.55;48.95;;;;;;;4.63;86.01;101029.94;4946861;28;20403;-83
2023/12/11 05:36:06;;;;;;;113.60;48.35;;;;;;;5.10;86.10;101092.13;4954823;28;20062;-81
2023/12/11 05:38:34;;;;;;;101.80;48.17;;;;;;;4.67;86.37;101020.94;4961030;28;20488;-82
2023/12/11 05:41:01;;;;;;;98.75;47.75;;;;;;;5.09;85.94;101095.69;4956471;28;20492;-82
2023/12/11 05:43:31;;;;;;;105.95;48.53;;;;;;;5.19;86.58;101124.94;4955498;28;20514;-80
2023/12/11 05:45:58;;;;;;;97.20;49.75;;;;;;;5.25;86.35;101109.66;4963086;28;20460;-82
2023/12/11 05:48:25;;;;;;;86.43;45.33;;;;;;;5.10;84.85;101073.69;4963234;28;20085;-82
2023/12/11 05:50:52;;;;;;;90.57;45.35;;;;;;;4.61;84.41;100989.72;4931524;28;20050;-81
2023/12/11 05:53:19;;;;;;;94.05;46.80;;;;;;;4.18;84.25;100923.84;4972295;28;20320;-80
2023/12/11 05:55:46;;;;;;;92.53;48.33;;;;;;;4.53;84.51;101005.09;4946521;28;20052;-80
2023/12/11 05:58:13;;;;;;;106.70;47.65;;;;;;;5.17;84.30;101111.88;4954980;28;20496;-84
2023/12/11 06:00:40;;;;;;;96.90;47.25;;;;;;;4.61;84.72;101023.91;4950291;28;20536;-82
2023/12/11 06:03:07;;;;;;;99.18;46.90;;;;;;;4.76;84.77;101065.13;4981584;28;20116;-82
2023/12/11 06:05:34;;;;;;;101.40;49.78;;;;;;;4.61;84.67;101037.91;4967442;28;20363;-83
2023/12/11 06:08:01;;;;;;;103.82;48.53;;;;;;;4.49;85.00;101039.47;4961006;28;20183;-83
2023/12/11 06:10:28;;;;;;;109.78;50.38;;;;;;;4.34;84.90;101016.63;4978849;28;20403;-81
2023/12/11 06:13:06;;;;;;;106.80;50.70;;;;;;;5.01;84.69;101140.84;4977301;28;20144;-84
2023/12/11 06:15:38;;;;;;;97.53;47.63;;;;;;;4.99;85.26;101131.34;4947683;28;20273;-82
2023/12/11 06:18:06;;;;;;;104.57;48.08;;;;;;;4.89;84.62;101131.03;4955717;28;20057;-83
2023/12/11 06:20:33;;;;;;;102.22;49.30;;;;;;;5.03;84.92;101153.94;4958711;28;20429;-81
2023/12/11 06:23:00;;;;;;;107.72;49.33;;;;;;;4.68;85.05;101088.38;4958845;28;20053;-82
2023/12/11 06:25:27;;;;;;;97.20;48.60;;;;;;;4.99;85.19;101145.34;4969478;28;20413;-81
2023/12/11 06:27:54;;;;;;;107.63;50.83;;;;;;;4.35;85.37;101065.66;4978153;28;20129;-81
2023/12/11 06:30:21;;;;;;;110.88;49.33;;;;;;;4.13;85.21;101031.00;4939769;28;20062;-84
2023/12/11 06:32:48;;;;;;;133.98;54.60;;;;;;;4.84;85.56;101128.66;4950909;28;20125;-82
2023/12/11 06:35:19;;;;;;;125.47;54.67;;;;;;;4.20;85.83;101014.81;4931936;28;20046;-83
2023/12/11 06:37:46;;;;;;;133.93;56.63;;;;;;;4.50;87.06;101091.09;4937923;28;20055;-82
2023/12/11 06:40:13;;;;;;;134.75;56.08;;;;;;;4.09;87.04;101043.44;4942352;28;20102;-83
2023/12/11 06:42:40;;;;;;;129.30;56.22;;;;;;;4.23;86.70;101063.72;4933466;28;20445;-82
2023/12/11 06:45:08;;;;;;;127.72;54.80;;;;;;;4.78;86.50;101143.94;4956866;28;20563;-82
2023/12/11 06:47:36;;;;;;;142.10;55.75;;;;;;;4.52;85.88;101079.66;4938765;28;20054;-83
2023/12/11 06:50:03;;;;;;;128.95;54.80;;;;;;;4.81;86.34;101143.78;4939625;28;20231;-82
2023/12/11 06:52:30;;;;;;;127.35;57.50;;;;;;;3.54;86.45;100936.97;4979436;28;20054;-83
2023/12/11 06:54:57;;;;;;;124.22;52.80;;;;;;;4.95;87.06;101180.66;4977194;28;20384;-82
2023/12/11 06:57:24;;;;;;;123.18;52.90;;;;;;;4.90;87.18;101175.69;4984100;28;20054;-83
2023/12/11 06:59:51;;;;;;;135.23;59.40;;;;;;;4.95;86.81;101177.19;4973115;28;20381;-82
2023/12/11 07:02:19;;;;;;;134.00;56.28;;;;;;;4.99;87.44;101189.25;4977683;28;20344;-80
2023/12/11 07:04:46;;;;;;;120.05;53.30;;;;;;;4.52;86.54;101111.22;4964246;28;20546;-82
2023/12/11 07:07:19;;;;;;;129.77;54.20;;;;;;;4.83;86.49;101148.03;4941333;28;20076;-84
2023/12/11 07:09:52;;;;;;;126.50;54.58;;;;;;;5.13;86.25;101198.06;4961819;28;20137;-82
2023/12/11 07:12:19;;;;;;;123.68;54.20;;;;;;;5.00;86.22;101169.88;4977053;28;20449;-81
2023/12/11 07:14:47;;;;;;;126.88;53.97;;;;;;;5.00;86.34;101175.13;4976519;28;20428;-81
2023/12/11 07:17:14;;;;;;;122.63;54.42;;;;;;;4.86;87.27;101163.63;4985122;28;20480;-82
2023/12/11 07:19:41;;;;;;;117.88;53.30;;;;;;;5.04;87.44;101160.88;4978655;28;20404;-81
2023/12/11 07:22:12;;;;;;;119.20;54.70;;;;;;;4.70;87.51;101105.75;4965393;28;20058;-82
2023/12/11 07:24:38;;;;;;;120.68;51.95;;;;;;;5.04;86.96;101168.78;4955823;28;20562;-81
2023/12/11 07:27:05;;;;;;;112.43;49.03;;;;;;;4.93;86.70;101154.44;4969084;28;20050;-82
2023/12/11 07:29:32;;;;;;;109.95;49.70;;;;;;;5.13;86.99;101187.53;4950322;28;20124;-82
2023/12/11 07:31:59;;;;;;;124.63;50.10;;;;;;;5.14;86.39;101162.06;4950248;28;20488;-81
2023/12/11 07:34:33;;;;;;;117.30;47.20;;;;;;;5.21;85.49;101173.94;4937149;28;20060;-83
2023/12/11 07:37:07;;;;;;;115.18;50.22;;;;;;;4.89;85.73;101126.63;4932850;28;20343;-82
2023/12/11 07:39:35;;;;;;;114.35;47.95;;;;;;;4.97;86.25;101139.31;4928886;28;20450;-80
2023/12/11 07:42:05;;;;;;;132.95;49.90;;;;;;;5.03;85.67;101138.16;4921692;28;20286;-81
2023/12/11 07:44:33;;;;;;;135.07;48.83;;;;;;;4.88;85.43;101138.09;4927987;28;20500;-81
2023/12/11 07:46:59;;;;;;;124.15;49.95;;;;;;;4.46;86.25;101071.16;4933756;28;20050;-82
2023/12/11 07:49:26;;;;;;;110.72;49.47;;;;;;;4.69;87.06;101108.50;4931652;28;20058;-82
2023/12/11 07:52:02;;;;;;;117.88;48.92;;;;;;;4.80;87.41;101110.50;4898513;28;20046;-83
2023/12/11 07:54:29;;;;;;;104.85;49.22;;;;;;;4.65;87.25;101086.75;4917325;28;20045;-82
2023/12/11 07:56:56;;;;;;;103.85;48.28;;;;;;;4.92;87.57;101115.91;4951539;28;20443;-81
2023/12/11 07:59:23;;;;;;;115.95;51.88;;;;;;;5.01;88.10;101103.19;4966974;28;20166;-81
2023/12/11 08:01:55;;;;;;;105.85;49.90;;;;;;;4.95;87.51;101098.25;4976407;28;20068;-82
2023/12/11 08:04:27;;;;;;;125.25;50.70;;;;;;;5.08;87.43;101101.88;4956054;28;20054;-82
2023/12/11 08:06:54;;;;;;;119.45;47.92;;;;;;;5.13;86.84;101119.09;4934772;28;20413;-81
2023/12/11 08:09:26;;;;;;;103.95;47.83;;;;;;;4.97;85.71;101077.97;4931453;28;20053;-82
2023/12/11 08:11:54;;;;;;;106.25;50.20;;;;;;;5.15;85.42;101105.84;4913433;28;20240;-82
2023/12/11 08:14:28;;;;;;;119.85;49.65;;;;;;;4.97;86.04;101075.34;4918136;28;20445;-82
2023/12/11 08:17:02;;;;;;;123.32;51.05;;;;;;;4.85;85.76;101048.78;4912546;28;20085;-81
2023/12/11 08:19:42;;;;;;;112.00;51.88;;;;;;;5.00;86.13;101077.78;4912055;28;20351;-82
2023/12/11 08:22:23;;;;;;;114.25;54.70;;;;;;;4.57;86.67;101015.34;4919439;28;20452;-82
2023/12/11 08:24:50;;;;;;;135.18;53.10;;;;;;;5.06;86.83;101080.06;4938636;28;20046;-81
2023/12/11 08:27:28;;;;;;;114.88;50.90;;;;;;;5.07;86.50;101073.84;4958047;28;20141;-82
2023/12/11 08:30:07;;;;;;;122.38;53.13;;;;;;;5.16;86.73;101101.44;4939030;28;20046;-82
2023/12/11 08:32:37;;;;;;;121.38;53.22;;;;;;;4.99;86.41;101076.09;4912994;28;20129;-81
2023/12/11 08:35:04;;;;;;;124.18;53.78;;;;;;;4.84;86.15;101047.09;4933512;28;20855;-82
2023/12/11 08:37:31;;;;;;;130.05;51.65;;;;;;;5.17;86.23;101085.56;4928339;28;20046;-81
2023/12/11 08:39:59;;;;;;;121.20;55.22;;;;;;;5.07;86.19;101087.00;4940974;28;20352;-81
2023/12/11 08:42:32;;;;;;;113.85;53.50;;;;;;;5.19;86.14;101094.19;4955193;28;20066;-82
2023/12/11 08:45:06;;;;;;;129.43;55.50;;;;;;;5.12;86.24;101079.69;4953530;28;20057;-82
2023/12/11 08:47:34;;;;;;;124.65;57.60;;;;;;;4.81;85.95;101028.88;4931641;28;20900;-81
2023/12/11 08:50:08;;;;;;;132.25;54.30;;;;;;;5.12;86.12;101074.44;4958208;28;20136;-80
2023/12/11 08:52:37;;;;;;;121.00;54.80;;;;;;;5.14;85.80;101073.41;4933867;28;20319;-81
2023/12/11 08:55:05;;;;;;;113.07;53.65;;;;;;;5.18;85.64;101060.94;4928796;28;20562;-82
2023/12/11 08:57:33;;;;;;;114.45;54.58;;;;;;;4.93;85.65;101022.91;4967760;28;20060;-80
2023/12/11 09:00:01;;;;;;;124.53;52.85;;;;;;;5.32;86.17;101071.50;4957004;28;20152;-83
2023/12/11 09:02:28;;;;;;;122.45;52.30;;;;;;;5.35;85.97;101075.72;4953659;28;20104;-79
2023/12/11 09:04:58;;;;;;;120.85;53.58;;;;;;;5.35;85.28;101076.56;4961117;28;20046;-82
2023/12/11 09:07:25;;;;;;;129.32;52.88;;;;;;;5.44;85.03;101090.13;4937436;28;20644;-82
2023/12/11 09:09:55;;;;;;;118.35;53.92;;;;;;;5.28;84.38;101075.22;4947788;28;20856;-81
2023/12/11 09:12:26;;;;;;;124.70;52.60;;;;;;;4.83;85.00;101003.34;4930115;28;20408;-80
2023/12/11 09:15:03;;;;;;;132.63;52.15;;;;;;;5.35;85.32;101063.41;4951513;28;20252;-80
2023/12/11 09:17:31;;;;;;;130.15;53.47;;;;;;;4.98;85.42;101009.47;4945625;28;20100;-80
2023/12/11 09:19:58;;;;;;;131.65;55.03;;;;;;;5.33;85.96;101061.78;4951790;28;20050;-80
2023/12/11 09:22:26;;;;;;;118.22;53.63;;;;;;;5.39;86.08;101050.91;4948079;28;20050;-81
2023/12/11 09:25:00;;;;;;;123.07;53.67;;;;;;;5.29;86.27;100999.72;4944912;28;20046;-81
2023/12/11 09:27:28;;;;;;;142.07;57.92;;;;;;;5.27;86.14;100993.72;4970541;28;20114;-81
2023/12/11 09:30:00;;;;;;;132.98;55.15;;;;;;;5.39;86.04;101019.31;4952992;28;20444;-80
2023/12/11 09:32:29;;;;;;;134.25;54.90;;;;;;;5.45;86.50;101024.19;4949512;28;20060;-80
2023/12/11 09:35:02;;;;;;;128.40;55.25;;;;;;;5.08;86.42;100960.63;4959407;28;20189;-82
2023/12/11 09:37:34;;;;;;;125.47;54.03;;;;;;;5.53;86.23;101010.56;4938980;28;20113;-81
2023/12/11 09:40:01;;;;;;;129.88;56.25;;;;;;;5.51;86.59;100986.97;4950748;28;20384;-80
2023/12/11 09:42:29;;;;;;;138.07;59.78;;;;;;;5.51;85.59;100996.63;4947560;28;20570;-80
2023/12/11 09:44:57;;;;;;;127.38;57.80;;;;;;;5.55;86.18;100998.16;4967924;28;20052;-80
2023/12/11 09:47:38;;;;;;;136.90;56.78;;;;;;;5.56;85.88;100994.59;4967770;28;20046;-80
2023/12/11 09:50:06;;;;;;;135.70;56.87;;;;;;;5.73;85.66;101028.63;4973015;28;20058;-80
2023/12/11 09:52:34;;;;;;;137.70;57.28;;;;;;;5.75;85.38;101010.06;4978822;28;20054;-81
2023/12/11 09:55:02;;;;;;;140.55;58.55;;;;;;;5.33;84.92;100962.59;4957218;28;20082;-81
2023/12/11 09:57:29;;;;;;;129.75;56.80;;;;;;;5.70;85.00;101001.63;4961276;28;20496;-81
2023/12/11 09:59:57;;;;;;;134.63;57.78;;;;;;;5.88;84.75;101032.09;4956558;28;20069;-80
2023/12/11 10:02:25;;;;;;;123.65;53.80;;;;;;;5.89;83.94;101046.13;4974411;28;20050;-81
2023/12/11 10:05:09;;;;;;;133.45;57.88;;;;;;;5.68;83.97;101012.25;4955835;28;20070;-83
2023/12/11 10:07:42;;;;;;;139.48;58.03;;;;;;;5.75;84.13;100999.53;4978472;28;20054;-82
2023/12/11 10:10:39;;;;;;;126.53;54.50;;;;;;;5.75;84.13;101010.94;4976536;28;20051;-82
2023/12/11 10:13:06;;;;;;;129.38;54.90;;;;;;;5.67;84.15;101007.91;4987586;28;20258;-83
2023/12/11 10:15:35;;;;;;;124.15;53.85;;;;;;;5.75;84.15;101016.22;4994786;28;20052;-81
2023/12/11 10:18:09;;;;;;;114.33;51.10;;;;;;;5.91;84.23;101029.25;5000101;28;20558;-82
2023/12/11 10:20:39;;;;;;;122.68;49.40;;;;;;;5.92;84.46;101043.28;4999037;28;20336;-82
2023/12/11 10:23:12;;;;;;;114.38;50.10;;;;;;;5.74;84.73;101022.41;4998804;28;20042;-80
2023/12/11 10:25:43;;;;;;;118.07;50.03;;;;;;;5.94;83.83;101057.25;4973573;28;20108;-81
2023/12/11 10:28:12;;;;;;;119.85;50.78;;;;;;;5.89;83.97;101054.03;4998646;28;20045;-82
2023/12/11 10:31:00;;;;;;;119.00;50.35;;;;;;;5.91;84.69;101042.44;4987884;28;20054;-81
2023/12/11 10:33:31;;;;;;;116.07;48.65;;;;;;;5.84;84.93;101013.94;4960334;28;20046;-82
2023/12/11 10:36:12;;;;;;;115.15;50.35;;;;;;;5.81;85.50;100999.16;4979288;28;20116;-82
2023/12/11 10:38:39;;;;;;;121.15;52.97;;;;;;;5.72;85.76;100974.22;4979250;28;20629;-83
2023/12/11 10:41:08;;;;;;;126.80;55.15;;;;;;;5.84;86.03;100984.97;4977580;28;20628;-83
2023/12/11 10:43:43;;;;;;;114.68;51.45;;;;;;;5.56;85.73;100948.03;4998737;28;20052;-82
2023/12/11 10:46:33;;;;;;;124.90;52.53;;;;;;;5.86;86.33;101007.63;4996591;28;20719;-83
2023/12/11 10:49:02;;;;;;;123.05;54.95;;;;;;;5.84;86.15;100996.34;4990118;28;20046;-82
2023/12/11 10:51:32;;;;;;;124.85;53.67;;;;;;;5.79;86.08;100993.97;4983049;28;20054;-84
2023/12/11 10:53:59;;;;;;;120.85;55.65;;;;;;;5.91;86.29;101025.78;4979565;28;20045;-82
2023/12/11 10:56:26;;;;;;;123.03;51.00;;;;;;;5.88;86.24;101031.25;4994974;28;20053;-83
2023/12/11 10:58:54;;;;;;;130.32;52.28;;;;;;;5.93;86.26;101031.81;4997973;28;20057;-82
2023/12/11 11:01:22;;;;;;;129.00;53.22;;;;;;;5.97;86.13;101023.66;4998949;28;20046;-83
2023/12/11 11:03:49;;;;;;;119.55;51.28;;;;;;;6.03;86.08;101030.31;4994339;28;20132;-82
2023/12/11 11:06:21;;;;;;;131.77;52.85;;;;;;;5.83;85.56;100989.38;4978163;28;20051;-82
2023/12/11 11:08:59;;;;;;;123.20;54.22;;;;;;;5.89;85.45;101001.31;4990733;28;20080;-81
2023/12/11 11:11:32;;;;;;;132.45;52.88;;;;;;;6.12;85.37;101024.47;4996051;28;20049;-80
2023/12/11 11:14:36;;;;;;;116.78;50.13;;;;;;;5.87;85.42;100959.25;4996484;28;20049;-81
2023/12/11 11:17:05;;;;;;;129.63;48.67;;;;;;;6.10;85.10;101007.91;4998197;28;20061;-81